57.8°F
Current conditions from King Hill
Updated every 5 minutes
 
  Friday August 18, 2017

Observations for Westford

Westford

44° 37' 39"N, 73° 02' 29"W, Elevation 850 ft.
Eastern Time

Hourly observations for the last 72 hours

Date Time Temperature (°F) Humi-
dity

(%)
Wind
(mph)
Pressure Rain (in)
Air Dew 6 Hour 1 Hr 3 Hr 6 Hr Day
Alt
(in)
Sea
Level

(mb)
Max Min
18 01:00 57.7 56.6 96 Calm 29.89 1012.4 0.00
18 00:00 56.1 55.0 96 Calm 29.92 1013.1 0.00
17 23:00 55.8 54.4 95 Calm 29.92 1013.4 0.00
17 22:00 56.3 54.3 93 Calm 29.93 1013.4 0.00
17 21:00 59.1 56.2 90 Calm 29.92 1013.4 0.00
17 20:00 62.1 57.9 76.7 62.1 86 Calm 29.92 1013.2 0.00
17 19:00 66.7 60.3 80 Calm 29.93 1013.5 0.00
17 18:00 73.2 60.7 65 Calm 29.92 1013.4 0.00
17 17:00 74.6 59.3 59 Calm 29.93 1013.5 0.00
17 16:00 76.1 58.8 55 Calm 29.94 1013.9 0.00
17 15:00 74.1 61.6 65 WNW 0 G 6 29.96 1014.5 0.00
17 14:00 74.8 59.1 75.3 58.0 58 W 4 G 9 29.97 1015.0 0.00
17 13:00 72.8 60.8 66 WNW 0 G 8 29.99 1015.6 0.00
17 12:00 72.3 59.0 63 WNW 4 G 8 30.00 1016.0 0.00
17 11:00 70.2 56.6 62 WSW 3 G 7 30.01 1016.3 0.00
17 10:00 66.3 55.8 69 WSW 0 G 7 30.02 1016.8 0.00
17 09:00 62.5 55.2 77 SSW 1 G 7 30.02 1016.7 0.00
17 08:00 58.0 52.9 58.0 49.1 83 SSW 0 G 5 30.02 1016.6 0.00
17 07:00 53.7 50.2 88 SW 0 G 5 30.00 1016.1 0.00
17 06:00 51.3 49.9 95 SW 0 G 5 30.00 1015.8 0.00
17 05:00 49.7 48.0 94 Calm 29.99 1015.5 0.00
17 04:00 49.5 48.1 95 Calm 29.99 1015.7 0.00
17 03:00 49.1 47.7 95 Calm 30.00 1015.9 0.00
17 02:00 49.8 48.1 56.9 49.6 94 Calm 30.00 1015.8 0.00
17 01:00 50.1 48.2 93 Calm 30.00 1016.1 0.00
17 00:00 50.6 48.7 93 Calm 29.99 1015.7 0.01
16 23:00 50.5 48.6 93 Calm 30.00 1015.8 0.01
16 22:00 51.3 48.8 91 Calm 30.00 1015.9 0.01
16 21:00 52.2 49.4 90 Calm 29.99 1015.5 0.01
16 20:00 56.8 51.0 72.6 56.8 81 Calm 29.97 1015.0 0.01
16 19:00 64.0 54.8 72 Calm 29.96 1014.7 0.01
16 18:00 67.3 53.8 62 WNW 0 G 2 29.95 1014.4 0.01
16 17:00 71.6 55.1 56 WNW 1 G 8 29.95 1014.2 0.01
16 16:00 72.0 54.5 54 WNW 1 G 9 29.95 1014.3 0.01
16 15:00 72.0 56.0 57 WNW 0 G 9 29.96 1014.7 0.01
16 14:00 70.1 53.7 71.6 57.1 56 NE 1 G 11 29.98 1015.2 0.01
16 13:00 69.3 55.3 61 NE 0 G 10 29.98 1015.3 0.01
16 12:00 68.5 55.0 62 NW 2 G 10 29.98 1015.2 0.01
16 11:00 67.7 55.9 66 NW 0 G 8 29.98 1015.3 0.01
16 10:00 65.4 55.8 71 NE 0 G 10 29.97 1015.0 0.01
16 09:00 60.6 55.1 82 NNE 2 G 12 29.95 1014.4 0.01
16 08:00 57.1 56.0 60.8 56.9 96 NNE 0 G 7 29.94 1014.0 0.01 0.01
16 07:00 58.6 57.8 97 ENE 0 G 5 29.94 1013.8 0.01
16 06:00 60.4 59.5 97 ESE 0 G 5 29.91 1012.9 0.01
16 05:00 60.2 59.6 98 WNW 1 G 5 29.89 1012.1 0.01 0.01 0.01
16 04:00 57.3 56.5 97 Calm 29.86 1011.1 0.00
16 03:00 57.7 56.9 97 Calm 29.85 1010.8 0.00
16 02:00 57.3 56.5 65.1 57.3 97 Calm 29.84 1010.7 0.00
16 01:00 57.8 57.0 97 Calm 29.84 1010.5 0.00
16 00:00 59.4 58.3 96 Calm 29.83 1010.2 0.12
15 23:00 58.4 57.3 96 Calm 29.81 1009.5 0.12
15 22:00 60.6 59.2 95 Calm 29.81 1009.4 0.12
15 21:00 63.1 61.6 95 Calm 29.81 1009.4 0.12
15 20:00 65.1 63.3 79.9 63.8 94 WNW 6 G 14 29.78 1008.6 0.08 0.12 0.12 0.12
15 19:00 68.0 63.0 84 SSW 3 G 15 29.77 1008.1 0.04 0.04
15 18:00 74.3 66.3 76 SSW 0 G 2 29.75 1007.6 0.00
15 17:00 79.5 67.2 66 SW 1 G 9 29.75 1007.5 0.00
15 16:00 75.9 66.6 73 W 0 G 6 29.76 1007.8 0.00
15 15:00 77.6 69.4 76 WSW 0 G 2 29.77 1008.1 0.00
15 14:00 75.6 65.9 79.0 65.4 72 SW 1 G 6 29.77 1008.3 0.00
15 13:00 75.1 65.5 72 SSW 0 G 10 29.78 1008.6 0.00
15 12:00 75.9 65.4 70 SW 5 G 14 29.80 1009.0 0.00
15 11:00 74.4 65.2 73 SW 3 G 11 29.81 1009.5 0.00
15 10:00 73.0 64.6 75 SW 4 G 13 29.81 1009.5 0.00
15 09:00 69.2 63.1 81 SW 0 G 14 29.82 1009.8 0.00
15 08:00 65.4 62.1 65.4 56.0 89 SSW 0 G 5 29.82 1010.0 0.00
15 07:00 58.3 57.2 96 SSW 0 G 1 29.83 1010.1 0.00
15 06:00 56.3 54.6 94 Calm 29.83 1010.0 0.00
15 05:00 57.8 55.5 92 Calm 29.83 1010.2 0.00
15 04:00 59.7 56.8 90 SSW 0 G 2 29.83 1010.4 0.00
15 03:00 59.0 55.8 89 SSW 0 G 5 29.84 1010.7 0.00
15 02:00 60.8 55.9 65.7 59.5 84 Calm 29.85 1011.0 0.00

Data generated by WxSolution Version 1.9.0.6, Build 2017.01.14.


 
 
Current Radar Loop:

Copyright © WestfordWeather.net 2007-2017. All rights reserved.